sensor_id;sensor_type;location;lat;lon;timestamp;pressure;altitude;pressure_sealevel;temperature;humidity
37298;BME280;30517;51.932;4.278;2023-02-12T00:02:30;103898.00;;;9.67;67.30
37298;BME280;30517;51.932;4.278;2023-02-12T00:05:11;103885.34;;;9.60;67.53
37298;BME280;30517;51.932;4.278;2023-02-12T00:07:52;103905.16;;;9.70;67.33
37298;BME280;30517;51.932;4.278;2023-02-12T00:10:33;103879.31;;;9.63;67.53
37298;BME280;30517;51.932;4.278;2023-02-12T00:13:14;103884.59;;;9.63;67.43
37298;BME280;30517;51.932;4.278;2023-02-12T00:15:55;103896.34;;;9.69;67.23
37298;BME280;30517;51.932;4.278;2023-02-12T00:18:36;103898.00;;;9.67;67.26
37298;BME280;30517;51.932;4.278;2023-02-12T00:21:17;103910.34;;;9.68;67.30
37298;BME280;30517;51.932;4.278;2023-02-12T00:23:58;103905.06;;;9.68;67.41
37298;BME280;30517;51.932;4.278;2023-02-12T00:26:39;103905.06;;;9.68;67.22
37298;BME280;30517;51.932;4.278;2023-02-12T00:29:19;103909.44;;;9.68;67.57
37298;BME280;30517;51.932;4.278;2023-02-12T00:32:00;103888.47;;;9.53;67.48
37298;BME280;30517;51.932;4.278;2023-02-12T00:34:41;103899.34;;;9.59;67.58
37298;BME280;30517;51.932;4.278;2023-02-12T00:37:22;103913.81;;;9.67;67.56
37298;BME280;30517;51.932;4.278;2023-02-12T00:40:04;103888.81;;;9.59;67.58
37298;BME280;30517;51.932;4.278;2023-02-12T00:42:45;103887.66;;;9.54;67.30
37298;BME280;30517;51.932;4.278;2023-02-12T00:45:26;103836.13;;;9.25;67.62
37298;BME280;30517;51.932;4.278;2023-02-12T00:48:06;103878.63;;;9.49;67.79
37298;BME280;30517;51.932;4.278;2023-02-12T00:50:48;103835.47;;;9.29;67.86
37298;BME280;30517;51.932;4.278;2023-02-12T00:53:30;103882.47;;;9.56;67.85
37298;BME280;30517;51.932;4.278;2023-02-12T00:56:12;103899.25;;;9.58;67.64
37298;BME280;30517;51.932;4.278;2023-02-12T00:58:52;103907.41;;;9.62;67.65
37298;BME280;30517;51.932;4.278;2023-02-12T01:01:33;103877.63;;;9.47;67.62
37298;BME280;30517;51.932;4.278;2023-02-12T01:04:14;103891.28;;;9.56;67.95
37298;BME280;30517;51.932;4.278;2023-02-12T01:06:55;103899.50;;;9.62;67.77
37298;BME280;30517;51.932;4.278;2023-02-12T01:09:36;103892.09;;;9.55;68.02
37298;BME280;30517;51.932;4.278;2023-02-12T01:12:17;103875.09;;;9.48;67.77
37298;BME280;30517;51.932;4.278;2023-02-12T01:14:58;103856.09;;;9.38;67.34
37298;BME280;30517;51.932;4.278;2023-02-12T01:17:39;103828.31;;;9.26;67.77
37298;BME280;30517;51.932;4.278;2023-02-12T01:20:22;103897.66;;;9.61;67.98
37298;BME280;30517;51.932;4.278;2023-02-12T01:23:03;103901.16;;;9.60;67.79
37298;BME280;30517;51.932;4.278;2023-02-12T01:25:45;103892.94;;;9.54;68.25
37298;BME280;30517;51.932;4.278;2023-02-12T01:28:26;103805.31;;;9.06;67.40
37298;BME280;30517;51.932;4.278;2023-02-12T01:31:14;103879.63;;;9.51;67.59
37298;BME280;30517;51.932;4.278;2023-02-12T01:33:56;103883.53;;;9.59;67.32
37298;BME280;30517;51.932;4.278;2023-02-12T01:36:37;103894.97;;;9.60;67.38
37298;BME280;30517;51.932;4.278;2023-02-12T01:39:18;103898.50;;;9.60;67.64
37298;BME280;30517;51.932;4.278;2023-02-12T01:41:59;103902.00;;;9.59;67.85
37298;BME280;30517;51.932;4.278;2023-02-12T01:45:16;103889.72;;;9.60;67.66
37298;BME280;30517;51.932;4.278;2023-02-12T01:47:45;103875.91;;;9.47;67.42
37298;BME280;30517;51.932;4.278;2023-02-12T01:50:26;103884.88;;;9.51;67.56
37298;BME280;30517;51.932;4.278;2023-02-12T01:53:07;103902.78;;;9.58;67.72
37298;BME280;30517;51.932;4.278;2023-02-12T01:55:52;103860.38;;;9.36;67.75
37298;BME280;30517;51.932;4.278;2023-02-12T01:58:37;103884.78;;;9.49;67.81
37298;BME280;30517;51.932;4.278;2023-02-12T02:01:22;103820.63;;;9.13;67.73
37298;BME280;30517;51.932;4.278;2023-02-12T02:04:11;103836.88;;;9.22;67.55
37298;BME280;30517;51.932;4.278;2023-02-12T02:06:59;103901.00;;;9.57;67.41
37298;BME280;30517;51.932;4.278;2023-02-12T02:09:41;103908.81;;;9.56;67.72
37298;BME280;30517;51.932;4.278;2023-02-12T02:12:23;103902.66;;;9.55;67.49
37298;BME280;30517;51.932;4.278;2023-02-12T02:15:24;103905.38;;;9.57;67.30
37298;BME280;30517;51.932;4.278;2023-02-12T02:18:11;103907.09;;;9.56;67.82
37298;BME280;30517;51.932;4.278;2023-02-12T02:24:20;103893.97;;;9.40;
37298;BME280;30517;51.932;4.278;2023-02-12T02:27:29;103897.22;;;9.52;67.40
37298;BME280;30517;51.932;4.278;2023-02-12T02:36:43;103894.69;;;9.53;67.65
37298;BME280;30517;51.932;4.278;2023-02-12T02:39:37;103889.75;;;9.43;67.53
37298;BME280;30517;51.932;4.278;2023-02-12T02:42:42;103891.34;;;9.40;67.52
37298;BME280;30517;51.932;4.278;2023-02-12T02:48:23;103884.41;;;9.42;67.87
37298;BME280;30517;51.932;4.278;2023-02-12T02:51:11;103895.41;;;9.51;67.69
37298;BME280;30517;51.932;4.278;2023-02-12T02:54:06;103895.41;;;9.51;67.71
37298;BME280;30517;51.932;4.278;2023-02-12T02:56:49;103858.50;;;9.33;67.23
37298;BME280;30517;51.932;4.278;2023-02-12T02:59:36;103891.88;;;9.50;67.78
37298;BME280;30517;51.932;4.278;2023-02-12T03:02:31;103846.66;;;9.25;67.60
37298;BME280;30517;51.932;4.278;2023-02-12T03:05:27;103886.63;;;9.50;67.20
37298;BME280;30517;51.932;4.278;2023-02-12T03:08:15;103883.06;;;9.50;67.26
37298;BME280;30517;51.932;4.278;2023-02-12T03:11:08;103861.53;;;9.41;67.72
37298;BME280;30517;51.932;4.278;2023-02-12T03:14:07;103882.16;;;9.49;67.37
37298;BME280;30517;51.932;4.278;2023-02-12T03:16:58;103886.63;;;9.50;67.28
37298;BME280;30517;51.932;4.278;2023-02-12T03:19:52;103869.34;;;9.39;67.10
37298;BME280;30517;51.932;4.278;2023-02-12T03:22:38;103852.63;;;9.39;67.60
37298;BME280;30517;51.932;4.278;2023-02-12T03:25:25;103884.88;;;9.51;67.36
37298;BME280;30517;51.932;4.278;2023-02-12T03:28:21;103871.63;;;9.49;67.46
37298;BME280;30517;51.932;4.278;2023-02-12T03:31:11;103862.56;;;9.44;67.04
37298;BME280;30517;51.932;4.278;2023-02-12T03:34:23;103880.41;;;9.50;67.49
37298;BME280;30517;51.932;4.278;2023-02-12T03:37:13;103863.25;;;9.40;67.34
37298;BME280;30517;51.932;4.278;2023-02-12T03:40:05;103860.63;;;9.40;67.34
37298;BME280;30517;51.932;4.278;2023-02-12T03:42:56;103878.72;;;9.50;67.52
37298;BME280;30517;51.932;4.278;2023-02-12T03:45:56;103876.09;;;9.50;67.01
37298;BME280;30517;51.932;4.278;2023-02-12T03:48:50;103878.63;;;9.49;67.54
37298;BME280;30517;51.932;4.278;2023-02-12T03:51:38;103876.59;;;9.43;67.34
37298;BME280;30517;51.932;4.278;2023-02-12T03:54:20;103885.63;;;9.48;67.49
37298;BME280;30517;51.932;4.278;2023-02-12T03:57:06;103879.47;;;9.48;67.58
37298;BME280;30517;51.932;4.278;2023-02-12T03:59:49;103883.81;;;9.47;67.41
37298;BME280;30517;51.932;4.278;2023-02-12T04:02:30;103869.19;;;9.36;67.62
37298;BME280;30517;51.932;4.278;2023-02-12T04:05:29;103864.50;;;9.30;67.48
37298;BME280;30517;51.932;4.278;2023-02-12T04:08:11;103883.66;;;9.44;67.16
37298;BME280;30517;51.932;4.278;2023-02-12T04:23:40;103900.44;;;9.46;67.51
37298;BME280;30517;51.932;4.278;2023-02-12T04:27:01;103904.66;;;9.43;67.50
37298;BME280;30517;51.932;4.278;2023-02-12T04:30:08;103909.09;;;9.44;67.25
37298;BME280;30517;51.932;4.278;2023-02-12T04:32:59;103916.16;;;9.45;67.94
37298;BME280;30517;51.932;4.278;2023-02-12T04:35:59;103917.91;;;9.44;67.82
37298;BME280;30517;51.932;4.278;2023-02-12T04:38:48;103911.63;;;9.42;67.84
37298;BME280;30517;51.932;4.278;2023-02-12T04:41:30;103879.91;;;9.23;67.38
37298;BME280;30517;51.932;4.278;2023-02-12T04:44:15;103921.44;;;9.45;67.67
37298;BME280;30517;51.932;4.278;2023-02-12T04:46:57;103907.91;;;9.37;67.85
37298;BME280;30517;51.932;4.278;2023-02-12T04:49:38;103910.28;;;9.33;67.61
37298;BME280;30517;51.932;4.278;2023-02-12T04:52:18;103930.19;;;9.44;67.47
37298;BME280;30517;51.932;4.278;2023-02-12T04:54:59;103892.34;;;9.25;67.52
37298;BME280;30517;51.932;4.278;2023-02-12T04:57:40;103906.91;;;9.35;67.46
37298;BME280;30517;51.932;4.278;2023-02-12T05:00:21;103908.69;;;9.36;67.75
37298;BME280;30517;51.932;4.278;2023-02-12T05:03:02;103899.50;;;9.28;67.52
37298;BME280;30517;51.932;4.278;2023-02-12T05:05:43;103922.28;;;9.44;67.75
37298;BME280;30517;51.932;4.278;2023-02-12T05:08:23;103916.09;;;9.43;67.43
37298;BME280;30517;51.932;4.278;2023-02-12T05:11:06;103921.38;;;9.43;67.40
37298;BME280;30517;51.932;4.278;2023-02-12T05:13:51;103918.75;;;9.43;67.51
37298;BME280;30517;51.932;4.278;2023-02-12T05:16:33;103913.31;;;9.40;67.53
37298;BME280;30517;51.932;4.278;2023-02-12T05:19:14;103905.06;;;9.34;67.61
37298;BME280;30517;51.932;4.278;2023-02-12T05:21:55;103923.13;;;9.43;67.21
37298;BME280;30517;51.932;4.278;2023-02-12T05:24:36;103910.59;;;9.39;67.63
37298;BME280;30517;51.932;4.278;2023-02-12T05:27:16;103906.16;;;9.38;67.45
37298;BME280;30517;51.932;4.278;2023-02-12T05:29:57;103916.00;;;9.42;67.33
37298;BME280;30517;51.932;4.278;2023-02-12T05:32:38;103921.28;;;9.42;67.02
37298;BME280;30517;51.932;4.278;2023-02-12T05:35:19;103920.38;;;9.41;67.66
37298;BME280;30517;51.932;4.278;2023-02-12T05:38:00;103916.00;;;9.42;67.04
37298;BME280;30517;51.932;4.278;2023-02-12T05:40:41;103895.22;;;9.30;67.51
37298;BME280;30517;51.932;4.278;2023-02-12T05:43:22;103919.50;;;9.41;67.71
37298;BME280;30517;51.932;4.278;2023-02-12T05:46:05;103908.69;;;9.36;67.08
37298;BME280;30517;51.932;4.278;2023-02-12T05:48:46;103877.97;;;9.19;67.45
37298;BME280;30517;51.932;4.278;2023-02-12T05:51:27;103922.19;;;9.42;67.15
37298;BME280;30517;51.932;4.278;2023-02-12T05:54:09;103897.59;;;9.25;67.52
37298;BME280;30517;51.932;4.278;2023-02-12T05:56:50;103912.22;;;9.37;67.49
37298;BME280;30517;51.932;4.278;2023-02-12T05:59:31;103881.41;;;9.18;67.12
37298;BME280;30517;51.932;4.278;2023-02-12T06:02:12;103905.59;;;9.27;67.39
37298;BME280;30517;51.932;4.278;2023-02-12T06:04:53;103915.72;;;9.36;67.06
37298;BME280;30517;51.932;4.278;2023-02-12T06:07:34;103906.00;;;9.35;67.01
37298;BME280;30517;51.932;4.278;2023-02-12T06:10:16;103901.22;;;9.27;67.27
37298;BME280;30517;51.932;4.278;2023-02-12T06:12:56;103919.50;;;9.41;66.92
37298;BME280;30517;51.932;4.278;2023-02-12T06:15:37;103847.13;;;9.00;67.08
37298;BME280;30517;51.932;4.278;2023-02-12T06:18:18;103923.13;;;9.43;67.50
37298;BME280;30517;51.932;4.278;2023-02-12T06:20:59;103913.91;;;9.35;67.36
37298;BME280;30517;51.932;4.278;2023-02-12T06:23:39;103910.44;;;9.36;67.27
37298;BME280;30517;51.932;4.278;2023-02-12T06:26:22;103917.34;;;9.34;67.29
37298;BME280;30517;51.932;4.278;2023-02-12T06:29:03;103888.72;;;9.23;67.72
37298;BME280;30517;51.932;4.278;2023-02-12T06:31:44;103908.66;;;9.35;67.27
37298;BME280;30517;51.932;4.278;2023-02-12T06:34:26;103898.75;;;9.30;66.88
37298;BME280;30517;51.932;4.278;2023-02-12T06:37:06;103913.06;;;9.36;67.16
37298;BME280;30517;51.932;4.278;2023-02-12T06:39:47;103920.13;;;9.37;67.41
37298;BME280;30517;51.932;4.278;2023-02-12T06:42:28;103917.50;;;9.37;67.75
37298;BME280;30517;51.932;4.278;2023-02-12T06:45:09;103923.91;;;9.42;67.78
37298;BME280;30517;51.932;4.278;2023-02-12T06:47:50;103930.03;;;9.41;67.50
37298;BME280;30517;51.932;4.278;2023-02-12T06:50:32;103918.94;;;9.30;67.28
37298;BME280;30517;51.932;4.278;2023-02-12T06:53:13;103895.66;;;9.21;67.27
37298;BME280;30517;51.932;4.278;2023-02-12T06:55:54;103768.25;;;8.51;67.15
37298;BME280;30517;51.932;4.278;2023-02-12T06:58:35;103928.88;;;9.36;67.80
37298;BME280;30517;51.932;4.278;2023-02-12T07:01:17;103934.41;;;9.40;67.65
37298;BME280;30517;51.932;4.278;2023-02-12T07:04:00;103927.00;;;9.33;67.70
37298;BME280;30517;51.932;4.278;2023-02-12T07:06:41;103933.00;;;9.30;67.49
37298;BME280;30517;51.932;4.278;2023-02-12T07:09:22;103944.03;;;9.40;67.30
37298;BME280;30517;51.932;4.278;2023-02-12T07:12:06;103959.84;;;9.40;67.81
37298;BME280;30517;51.932;4.278;2023-02-12T07:14:46;103958.91;;;9.39;67.89
37298;BME280;30517;51.932;4.278;2023-02-12T07:17:29;103957.38;;;9.43;67.55
37298;BME280;30517;51.932;4.278;2023-02-12T07:20:10;103963.28;;;9.39;66.89
37298;BME280;30517;51.932;4.278;2023-02-12T07:22:51;103865.47;;;8.82;67.35
37298;BME280;30517;51.932;4.278;2023-02-12T07:25:32;103962.28;;;9.37;67.51
37298;BME280;30517;51.932;4.278;2023-02-12T07:28:12;103956.97;;;9.35;67.44
37298;BME280;30517;51.932;4.278;2023-02-12T07:30:53;103977.28;;;9.38;67.35
37298;BME280;30517;51.932;4.278;2023-02-12T07:33:35;103868.97;;;8.81;67.28
37298;BME280;30517;51.932;4.278;2023-02-12T07:36:18;103976.41;;;9.37;67.33
37298;BME280;30517;51.932;4.278;2023-02-12T07:38:59;103976.41;;;9.37;67.86
37298;BME280;30517;51.932;4.278;2023-02-12T07:41:40;103937.44;;;9.15;67.65
37298;BME280;30517;51.932;4.278;2023-02-12T07:44:21;103977.03;;;9.33;67.08
37298;BME280;30517;51.932;4.278;2023-02-12T07:47:02;103981.66;;;9.37;67.55
37298;BME280;30517;51.932;4.278;2023-02-12T07:49:44;103874.78;;;8.75;67.19
37298;BME280;30517;51.932;4.278;2023-02-12T07:52:28;103979.53;;;9.30;67.08
37298;BME280;30517;51.932;4.278;2023-02-12T07:55:08;103945.34;;;9.15;67.62
37298;BME280;30517;51.932;4.278;2023-02-12T07:57:49;103938.28;;;9.14;67.20
37298;BME280;30517;51.932;4.278;2023-02-12T08:00:30;103980.72;;;9.37;67.24
37298;BME280;30517;51.932;4.278;2023-02-12T08:03:11;103986.00;;;9.37;67.63
37298;BME280;30517;51.932;4.278;2023-02-12T08:05:52;103984.19;;;9.36;67.20
37298;BME280;30517;51.932;4.278;2023-02-12T08:08:32;103953.59;;;9.21;67.14
37298;BME280;30517;51.932;4.278;2023-02-12T08:11:14;103991.28;;;9.37;67.52
37298;BME280;30517;51.932;4.278;2023-02-12T08:13:55;103981.25;;;9.29;67.75
37298;BME280;30517;51.932;4.278;2023-02-12T08:16:38;103988.56;;;9.35;67.12
37298;BME280;30517;51.932;4.278;2023-02-12T08:19:20;103972.09;;;9.23;67.38
37298;BME280;30517;51.932;4.278;2023-02-12T08:22:01;103995.47;;;9.33;66.96
37298;BME280;30517;51.932;4.278;2023-02-12T08:24:42;103984.69;;;9.28;67.51
37298;BME280;30517;51.932;4.278;2023-02-12T08:27:23;103952.28;;;9.13;67.28
37298;BME280;30517;51.932;4.278;2023-02-12T08:30:04;103998.38;;;9.38;67.21
37298;BME280;30517;51.932;4.278;2023-02-12T08:32:48;103993.91;;;9.37;67.28
37298;BME280;30517;51.932;4.278;2023-02-12T08:35:29;103991.28;;;9.37;67.19
37298;BME280;30517;51.932;4.278;2023-02-12T08:38:09;103900.97;;;8.89;66.91
37298;BME280;30517;51.932;4.278;2023-02-12T08:40:50;104001.06;;;9.39;66.91
37298;BME280;30517;51.932;4.278;2023-02-12T08:43:31;103978.38;;;9.25;67.08
37298;BME280;30517;51.932;4.278;2023-02-12T08:46:14;104000.84;;;9.35;67.23
37298;BME280;30517;51.932;4.278;2023-02-12T08:49:00;104008.00;;;9.37;67.33
37298;BME280;30517;51.932;4.278;2023-02-12T08:51:46;104006.28;;;9.38;67.33
37298;BME280;30517;51.932;4.278;2023-02-12T08:54:29;103986.09;;;9.22;67.16
37298;BME280;30517;51.932;4.278;2023-02-12T08:57:10;103983.53;;;9.23;67.11
37298;BME280;30517;51.932;4.278;2023-02-12T08:59:51;103996.06;;;9.27;67.60
37298;BME280;30517;51.932;4.278;2023-02-12T09:02:32;104014.09;;;9.36;67.45
37298;BME280;30517;51.932;4.278;2023-02-12T09:05:12;104003.13;;;9.28;67.68
37298;BME280;30517;51.932;4.278;2023-02-12T09:07:53;104014.09;;;9.36;67.24
37298;BME280;30517;51.932;4.278;2023-02-12T09:10:41;104015.81;;;9.36;67.84
37298;BME280;30517;51.932;4.278;2023-02-12T09:13:22;104016.72;;;9.36;67.18
37298;BME280;30517;51.932;4.278;2023-02-12T09:16:03;104022.88;;;9.37;67.60
37298;BME280;30517;51.932;4.278;2023-02-12T09:18:44;104018.13;;;9.29;67.26
37298;BME280;30517;51.932;4.278;2023-02-12T09:21:25;104023.41;;;9.29;67.24
37298;BME280;30517;51.932;4.278;2023-02-12T09:24:06;104020.59;;;9.26;67.29
37298;BME280;30517;51.932;4.278;2023-02-12T09:26:47;103940.19;;;8.84;67.31
37298;BME280;30517;51.932;4.278;2023-02-12T09:29:28;104038.69;;;9.37;67.23
37298;BME280;30517;51.932;4.278;2023-02-12T09:32:09;104038.69;;;9.37;67.85
37298;BME280;30517;51.932;4.278;2023-02-12T09:34:50;104040.44;;;9.36;67.57
37298;BME280;30517;51.932;4.278;2023-02-12T09:37:30;104036.06;;;9.37;67.28
37298;BME280;30517;51.932;4.278;2023-02-12T09:40:21;104029.81;;;9.35;67.19
37298;BME280;30517;51.932;4.278;2023-02-12T09:46:28;104033.41;;;9.37;67.56
37298;BME280;30517;51.932;4.278;2023-02-12T09:52:13;104014.41;;;9.26;67.39
37298;BME280;30517;51.932;4.278;2023-02-12T09:54:57;104016.47;;;9.31;67.25
37298;BME280;30517;51.932;4.278;2023-02-12T09:57:38;104023.97;;;9.24;67.36
37298;BME280;30517;51.932;4.278;2023-02-12T10:00:27;104028.16;;;9.37;67.80
37298;BME280;30517;51.932;4.278;2023-02-12T10:03:14;104022.56;;;9.30;67.74
37298;BME280;30517;51.932;4.278;2023-02-12T10:06:00;104038.69;;;9.37;67.31
37298;BME280;30517;51.932;4.278;2023-02-12T10:11:34;104029.00;;;9.36;67.80
37298;BME280;30517;51.932;4.278;2023-02-12T10:14:40;104014.66;;;9.30;67.47
37298;BME280;30517;51.932;4.278;2023-02-12T10:17:41;104023.81;;;9.37;67.70
37298;BME280;30517;51.932;4.278;2023-02-12T10:23:42;103961.00;;;8.96;67.51
37298;BME280;30517;51.932;4.278;2023-02-12T10:26:30;104024.72;;;9.38;67.97
37298;BME280;30517;51.932;4.278;2023-02-12T10:29:22;104037.06;;;9.39;67.70
37298;BME280;30517;51.932;4.278;2023-02-12T10:32:06;104030.16;;;9.41;67.76
37298;BME280;30517;51.932;4.278;2023-02-12T10:34:52;104031.13;;;9.43;67.55
37298;BME280;30517;51.932;4.278;2023-02-12T10:37:39;104031.13;;;9.43;67.65
37298;BME280;30517;51.932;4.278;2023-02-12T10:40:26;104032.78;;;9.41;67.29
37298;BME280;30517;51.932;4.278;2023-02-12T10:43:11;104029.41;;;9.43;67.71
37298;BME280;30517;51.932;4.278;2023-02-12T10:45:52;104032.94;;;9.44;67.43
37298;BME280;30517;51.932;4.278;2023-02-12T10:48:39;104023.06;;;9.40;67.76
37298;BME280;30517;51.932;4.278;2023-02-12T10:54:34;104036.56;;;9.46;67.62
37298;BME280;30517;51.932;4.278;2023-02-12T10:57:22;104038.22;;;9.44;67.13
37298;BME280;30517;51.932;4.278;2023-02-12T11:05:44;104017.72;;;9.38;67.58
37298;BME280;30517;51.932;4.278;2023-02-12T11:08:30;104033.25;;;9.50;67.76
37298;BME280;30517;51.932;4.278;2023-02-12T11:11:13;104027.19;;;9.51;67.35
37298;BME280;30517;51.932;4.278;2023-02-12T11:16:42;104013.75;;;9.46;67.54
37298;BME280;30517;51.932;4.278;2023-02-12T11:19:29;104011.22;;;9.48;67.38
37298;BME280;30517;51.932;4.278;2023-02-12T11:22:12;104005.69;;;9.43;67.47
37298;BME280;30517;51.932;4.278;2023-02-12T11:25:13;103993.09;;;9.38;67.40
37298;BME280;30517;51.932;4.278;2023-02-12T11:28:03;104020.06;;;9.50;67.26
37298;BME280;30517;51.932;4.278;2023-02-12T11:33:33;104011.22;;;9.48;67.73
37298;BME280;30517;51.932;4.278;2023-02-12T11:36:24;104000.59;;;9.30;67.55
37298;BME280;30517;51.932;4.278;2023-02-12T11:39:17;104024.88;;;9.41;67.46
37298;BME280;30517;51.932;4.278;2023-02-12T11:42:14;104013.09;;;9.34;68.02
37298;BME280;30517;51.932;4.278;2023-02-12T11:44:56;104012.53;;;9.40;67.51
37298;BME280;30517;51.932;4.278;2023-02-12T11:47:39;103990.94;;;9.30;67.69
37298;BME280;30517;51.932;4.278;2023-02-12T11:50:26;104002.22;;;9.44;67.96
37298;BME280;30517;51.932;4.278;2023-02-12T11:53:08;103995.47;;;9.33;66.19
37298;BME280;30517;51.932;4.278;2023-02-12T11:55:58;104008.31;;;9.43;67.16
37298;BME280;30517;51.932;4.278;2023-02-12T11:58:40;104006.75;;;9.47;66.76
37298;BME280;30517;51.932;4.278;2023-02-12T12:01:32;104007.75;;;9.49;67.35
37298;BME280;30517;51.932;4.278;2023-02-12T12:04:16;104001.88;;;9.55;67.32
37298;BME280;30517;51.932;4.278;2023-02-12T12:07:12;103984.31;;;9.37;66.54
37298;BME280;30517;51.932;4.278;2023-02-12T12:10:00;104007.16;;;9.55;67.19
37298;BME280;30517;51.932;4.278;2023-02-12T12:15:30;103990.00;;;9.63;67.06
37298;BME280;30517;51.932;4.278;2023-02-12T12:18:43;103994.69;;;9.68;66.82
37298;BME280;30517;51.932;4.278;2023-02-12T12:21:51;103985.88;;;9.68;66.96
37298;BME280;30517;51.932;4.278;2023-02-12T12:24:42;103994.84;;;9.71;66.77
37298;BME280;30517;51.932;4.278;2023-02-12T12:27:32;103989.50;;;9.70;67.01
37298;BME280;30517;51.932;4.278;2023-02-12T12:31:01;103993.03;;;9.70;67.11
37298;BME280;30517;51.932;4.278;2023-02-12T12:34:09;103962.50;;;9.58;67.35
37298;BME280;30517;51.932;4.278;2023-02-12T12:37:08;103975.25;;;9.66;67.10
37298;BME280;30517;51.932;4.278;2023-02-12T12:43:23;103961.16;;;9.66;67.45
37298;BME280;30517;51.932;4.278;2023-02-12T12:46:14;103977.69;;;9.80;67.27
37298;BME280;30517;51.932;4.278;2023-02-12T12:58:33;103966.41;;;9.82;67.20
37298;BME280;30517;51.932;4.278;2023-02-12T13:04:47;103956.69;;;9.81;67.29
37298;BME280;30517;51.932;4.278;2023-02-12T13:10:56;103944.31;;;9.80;67.42
37298;BME280;30517;51.932;4.278;2023-02-12T13:13:45;103950.81;;;9.87;67.26
37298;BME280;30517;51.932;4.278;2023-02-12T13:16:29;103953.53;;;9.88;67.14
37298;BME280;30517;51.932;4.278;2023-02-12T13:20:16;103948.19;;;9.87;67.16
37298;BME280;30517;51.932;4.278;2023-02-12T13:28:03;103918.03;;;9.82;67.21
37298;BME280;30517;51.932;4.278;2023-02-12T13:30:48;103920.03;;;9.86;67.40
37298;BME280;30517;51.932;4.278;2023-02-12T13:33:46;103910.97;;;9.81;67.25
37298;BME280;30517;51.932;4.278;2023-02-12T13:36:28;103930.16;;;9.96;67.17
37298;BME280;30517;51.932;4.278;2023-02-12T13:39:29;103932.81;;;9.96;67.20
37298;BME280;30517;51.932;4.278;2023-02-12T13:45:42;103927.53;;;9.96;67.17
37298;BME280;30517;51.932;4.278;2023-02-12T13:51:45;103922.44;;;9.99;67.27
37298;BME280;30517;51.932;4.278;2023-02-12T13:54:51;103923.41;;;10.01;67.08
37298;BME280;30517;51.932;4.278;2023-02-12T13:57:35;103918.88;;;9.98;67.01
37298;BME280;30517;51.932;4.278;2023-02-12T14:03:31;103914.53;;;9.99;67.25
37298;BME280;30517;51.932;4.278;2023-02-12T14:06:19;103900.22;;;9.94;66.99
37298;BME280;30517;51.932;4.278;2023-02-12T14:09:08;103902.84;;;9.94;67.04
37298;BME280;30517;51.932;4.278;2023-02-12T14:11:51;103910.06;;;9.98;66.62
37298;BME280;30517;51.932;4.278;2023-02-12T14:14:36;103902.91;;;9.95;67.17
37298;BME280;30517;51.932;4.278;2023-02-12T14:23:23;103898.75;;;10.01;67.08
37298;BME280;30517;51.932;4.278;2023-02-12T14:26:06;103888.31;;;10.02;66.64
37298;BME280;30517;51.932;4.278;2023-02-12T14:28:52;103898.00;;;10.03;66.91
37298;BME280;30517;51.932;4.278;2023-02-12T14:31:36;103894.63;;;10.06;67.01
37298;BME280;30517;51.932;4.278;2023-02-12T14:37:11;103892.88;;;10.06;66.84
37298;BME280;30517;51.932;4.278;2023-02-12T14:49:04;103884.81;;;10.03;67.06
37298;BME280;30517;51.932;4.278;2023-02-12T14:54:47;103876.91;;;10.03;66.93
37298;BME280;30517;51.932;4.278;2023-02-12T14:57:34;103883.31;;;10.08;66.69
37298;BME280;30517;51.932;4.278;2023-02-12T15:03:02;103890.53;;;10.12;66.53
37298;BME280;30517;51.932;4.278;2023-02-12T15:08:42;103884.44;;;10.13;66.96
37298;BME280;30517;51.932;4.278;2023-02-12T15:11:49;103868.16;;;10.04;66.56
37298;BME280;30517;51.932;4.278;2023-02-12T15:14:34;103881.84;;;10.15;66.53
37298;BME280;30517;51.932;4.278;2023-02-12T15:17:25;103876.59;;;10.15;66.48
37298;BME280;30517;51.932;4.278;2023-02-12T15:20:36;103880.06;;;10.14;66.85
37298;BME280;30517;51.932;4.278;2023-02-12T15:23:38;103873.94;;;10.15;66.47
37298;BME280;30517;51.932;4.278;2023-02-12T15:26:22;103868.75;;;10.16;66.28
37298;BME280;30517;51.932;4.278;2023-02-12T15:29:05;103872.28;;;10.17;66.71
37298;BME280;30517;51.932;4.278;2023-02-12T15:31:52;103866.72;;;10.11;66.60
37298;BME280;30517;51.932;4.278;2023-02-12T15:34:36;103873.19;;;10.17;66.62
37298;BME280;30517;51.932;4.278;2023-02-12T15:37:25;103880.28;;;10.18;66.59
37298;BME280;30517;51.932;4.278;2023-02-12T15:40:13;103875.81;;;10.17;66.65
37298;BME280;30517;51.932;4.278;2023-02-12T15:43:03;103847.97;;;10.05;66.06
37298;BME280;30517;51.932;4.278;2023-02-12T15:45:50;103870.69;;;10.20;66.26
37298;BME280;30517;51.932;4.278;2023-02-12T15:48:33;103841.97;;;10.07;66.13
37298;BME280;30517;51.932;4.278;2023-02-12T15:51:29;103869.75;;;10.18;66.76
37298;BME280;30517;51.932;4.278;2023-02-12T15:54:17;103860.69;;;10.13;66.39
37298;BME280;30517;51.932;4.278;2023-02-12T15:56:59;103856.56;;;10.18;66.39
37298;BME280;30517;51.932;4.278;2023-02-12T15:59:41;103872.44;;;10.20;66.56
37298;BME280;30517;51.932;4.278;2023-02-12T16:02:30;103869.78;;;10.20;66.48
37298;BME280;30517;51.932;4.278;2023-02-12T16:05:13;103850.00;;;10.10;66.35
37298;BME280;30517;51.932;4.278;2023-02-12T16:07:55;103867.25;;;10.22;66.55
37298;BME280;30517;51.932;4.278;2023-02-12T16:10:43;103862.50;;;10.14;66.70
37298;BME280;30517;51.932;4.278;2023-02-12T16:13:30;103871.63;;;10.21;66.30
37298;BME280;30517;51.932;4.278;2023-02-12T16:19:29;103875.97;;;10.20;66.32
37298;BME280;30517;51.932;4.278;2023-02-12T16:22:15;103860.09;;;10.19;66.09
37298;BME280;30517;51.932;4.278;2023-02-12T16:24:59;103849.16;;;10.11;66.28
37298;BME280;30517;51.932;4.278;2023-02-12T16:27:49;103856.09;;;10.09;66.11
37298;BME280;30517;51.932;4.278;2023-02-12T16:30:35;103874.31;;;10.23;66.31
37298;BME280;30517;51.932;4.278;2023-02-12T16:39:04;103876.16;;;10.24;66.33
37298;BME280;30517;51.932;4.278;2023-02-12T16:41:54;103871.69;;;10.23;66.53
37298;BME280;30517;51.932;4.278;2023-02-12T16:44:35;103877.03;;;10.24;66.31